sensor_id;sensor_type;location;lat;lon;timestamp;P1;durP1;ratioP1;P2;durP2;ratioP2
62861;SDS011;48953;53.110;5.592;2022-12-29T00:02:12;5.25;;;4.18;;
62861;SDS011;48953;53.110;5.592;2022-12-29T00:04:38;6.75;;;4.60;;
62861;SDS011;48953;53.110;5.592;2022-12-29T00:07:04;5.50;;;4.10;;
62861;SDS011;48953;53.110;5.592;2022-12-29T00:09:31;5.80;;;4.30;;
62861;SDS011;48953;53.110;5.592;2022-12-29T00:11:57;5.90;;;3.88;;
62861;SDS011;48953;53.110;5.592;2022-12-29T00:14:23;4.80;;;4.38;;
62861;SDS011;48953;53.110;5.592;2022-12-29T00:17:08;5.05;;;4.40;;
62861;SDS011;48953;53.110;5.592;2022-12-29T00:19:34;4.82;;;4.30;;
62861;SDS011;48953;53.110;5.592;2022-12-29T00:22:19;6.07;;;4.80;;
62861;SDS011;48953;53.110;5.592;2022-12-29T00:25:04;5.07;;;4.40;;
62861;SDS011;48953;53.110;5.592;2022-12-29T00:27:32;5.88;;;4.80;;
62861;SDS011;48953;53.110;5.592;2022-12-29T00:30:18;5.38;;;4.68;;
62861;SDS011;48953;53.110;5.592;2022-12-29T00:33:14;8.32;;;5.25;;
62861;SDS011;48953;53.110;5.592;2022-12-29T00:36:02;5.60;;;4.53;;
62861;SDS011;48953;53.110;5.592;2022-12-29T00:38:31;6.72;;;5.25;;
62861;SDS011;48953;53.110;5.592;2022-12-29T00:41:19;7.95;;;5.28;;
62861;SDS011;48953;53.110;5.592;2022-12-29T00:44:03;7.25;;;5.72;;
62861;SDS011;48953;53.110;5.592;2022-12-29T00:46:29;6.57;;;5.53;;
62861;SDS011;48953;53.110;5.592;2022-12-29T00:48:56;7.72;;;6.03;;
62861;SDS011;48953;53.110;5.592;2022-12-29T00:51:43;7.65;;;5.68;;
62861;SDS011;48953;53.110;5.592;2022-12-29T00:54:09;8.35;;;6.00;;
62861;SDS011;48953;53.110;5.592;2022-12-29T00:56:35;7.40;;;5.50;;
62861;SDS011;48953;53.110;5.592;2022-12-29T00:59:02;7.47;;;5.60;;
62861;SDS011;48953;53.110;5.592;2022-12-29T01:01:28;6.22;;;5.55;;
62861;SDS011;48953;53.110;5.592;2022-12-29T01:03:54;8.07;;;6.10;;
62861;SDS011;48953;53.110;5.592;2022-12-29T01:06:25;7.60;;;5.60;;
62861;SDS011;48953;53.110;5.592;2022-12-29T01:08:51;6.80;;;5.43;;
62861;SDS011;48953;53.110;5.592;2022-12-29T01:11:36;6.10;;;5.43;;
62861;SDS011;48953;53.110;5.592;2022-12-29T01:14:02;6.22;;;5.60;;
62861;SDS011;48953;53.110;5.592;2022-12-29T01:16:28;7.47;;;5.70;;
62861;SDS011;48953;53.110;5.592;2022-12-29T01:19:09;7.95;;;5.72;;
62861;SDS011;48953;53.110;5.592;2022-12-29T01:21:35;8.18;;;5.60;;
62861;SDS011;48953;53.110;5.592;2022-12-29T01:24:01;5.45;;;4.93;;
62861;SDS011;48953;53.110;5.592;2022-12-29T01:26:28;6.32;;;5.57;;
62861;SDS011;48953;53.110;5.592;2022-12-29T01:28:53;6.82;;;5.22;;
62861;SDS011;48953;53.110;5.592;2022-12-29T01:31:19;5.85;;;5.18;;
62861;SDS011;48953;53.110;5.592;2022-12-29T01:33:45;7.53;;;5.15;;
62861;SDS011;48953;53.110;5.592;2022-12-29T01:36:12;6.25;;;4.50;;
62861;SDS011;48953;53.110;5.592;2022-12-29T01:38:39;6.20;;;4.63;;
62861;SDS011;48953;53.110;5.592;2022-12-29T01:41:06;6.72;;;4.90;;
62861;SDS011;48953;53.110;5.592;2022-12-29T01:43:40;7.95;;;4.65;;
62861;SDS011;48953;53.110;5.592;2022-12-29T01:46:07;5.32;;;4.55;;
62861;SDS011;48953;53.110;5.592;2022-12-29T01:48:39;6.20;;;4.60;;
62861;SDS011;48953;53.110;5.592;2022-12-29T01:51:05;6.70;;;4.22;;
62861;SDS011;48953;53.110;5.592;2022-12-29T01:53:32;5.22;;;4.10;;
62861;SDS011;48953;53.110;5.592;2022-12-29T01:56:04;7.13;;;4.78;;
62861;SDS011;48953;53.110;5.592;2022-12-29T01:58:32;7.50;;;4.53;;
62861;SDS011;48953;53.110;5.592;2022-12-29T02:00:59;6.13;;;4.53;;
62861;SDS011;48953;53.110;5.592;2022-12-29T02:03:25;4.85;;;3.83;;
62861;SDS011;48953;53.110;5.592;2022-12-29T02:05:55;5.60;;;3.80;;
62861;SDS011;48953;53.110;5.592;2022-12-29T02:08:22;6.03;;;3.03;;
62861;SDS011;48953;53.110;5.592;2022-12-29T02:10:49;2.72;;;1.98;;
62861;SDS011;48953;53.110;5.592;2022-12-29T02:13:16;2.22;;;1.58;;
62861;SDS011;48953;53.110;5.592;2022-12-29T02:21:01;3.13;;;0.90;;
62861;SDS011;48953;53.110;5.592;2022-12-29T02:26:08;2.28;;;0.52;;
62861;SDS011;48953;53.110;5.592;2022-12-29T02:28:42;1.92;;;0.40;;
62861;SDS011;48953;53.110;5.592;2022-12-29T02:34:00;5.20;;;0.80;;
62861;SDS011;48953;53.110;5.592;2022-12-29T02:36:39;1.52;;;0.60;;
62861;SDS011;48953;53.110;5.592;2022-12-29T02:39:15;2.90;;;0.90;;
62861;SDS011;48953;53.110;5.592;2022-12-29T02:41:49;1.95;;;1.00;;
62861;SDS011;48953;53.110;5.592;2022-12-29T02:44:26;2.42;;;1.35;;
62861;SDS011;48953;53.110;5.592;2022-12-29T02:46:58;2.53;;;1.05;;
62861;SDS011;48953;53.110;5.592;2022-12-29T02:49:40;1.27;;;1.05;;
62861;SDS011;48953;53.110;5.592;2022-12-29T02:52:10;2.90;;;1.10;;
62861;SDS011;48953;53.110;5.592;2022-12-29T02:54:40;2.35;;;1.50;;
62861;SDS011;48953;53.110;5.592;2022-12-29T02:59:48;2.80;;;1.88;;
62861;SDS011;48953;53.110;5.592;2022-12-29T03:07:30;8.40;;;1.60;;
62861;SDS011;48953;53.110;5.592;2022-12-29T03:10:06;8.63;;;1.60;;
62861;SDS011;48953;53.110;5.592;2022-12-29T03:15:33;11.48;;;1.77;;
62861;SDS011;48953;53.110;5.592;2022-12-29T03:18:23;6.85;;;0.90;;
62861;SDS011;48953;53.110;5.592;2022-12-29T03:23:16;10.15;;;1.52;;
62861;SDS011;48953;53.110;5.592;2022-12-29T03:25:44;13.65;;;1.75;;
62861;SDS011;48953;53.110;5.592;2022-12-29T03:28:12;11.13;;;1.42;;
62861;SDS011;48953;53.110;5.592;2022-12-29T03:30:39;6.50;;;1.30;;
62861;SDS011;48953;53.110;5.592;2022-12-29T03:33:07;8.27;;;0.90;;
62861;SDS011;48953;53.110;5.592;2022-12-29T03:35:35;15.50;;;1.88;;
62861;SDS011;48953;53.110;5.592;2022-12-29T03:38:08;4.75;;;1.15;;
62861;SDS011;48953;53.110;5.592;2022-12-29T03:40:39;7.05;;;1.75;;
62861;SDS011;48953;53.110;5.592;2022-12-29T03:43:06;11.38;;;1.70;;
62861;SDS011;48953;53.110;5.592;2022-12-29T03:45:32;4.22;;;0.88;;
62861;SDS011;48953;53.110;5.592;2022-12-29T03:47:58;6.70;;;1.35;;
62861;SDS011;48953;53.110;5.592;2022-12-29T03:50:24;8.23;;;1.13;;
62861;SDS011;48953;53.110;5.592;2022-12-29T03:52:50;6.85;;;0.90;;
62861;SDS011;48953;53.110;5.592;2022-12-29T03:55:16;10.40;;;1.35;;
62861;SDS011;48953;53.110;5.592;2022-12-29T03:57:42;8.50;;;1.05;;
62861;SDS011;48953;53.110;5.592;2022-12-29T04:00:08;7.72;;;1.55;;
62861;SDS011;48953;53.110;5.592;2022-12-29T04:02:34;7.10;;;1.13;;
62861;SDS011;48953;53.110;5.592;2022-12-29T04:05:00;9.25;;;1.70;;
62861;SDS011;48953;53.110;5.592;2022-12-29T04:07:26;9.55;;;1.35;;
62861;SDS011;48953;53.110;5.592;2022-12-29T04:09:52;9.63;;;1.15;;
62861;SDS011;48953;53.110;5.592;2022-12-29T04:12:18;10.98;;;1.10;;
62861;SDS011;48953;53.110;5.592;2022-12-29T04:14:44;7.63;;;1.40;;
62861;SDS011;48953;53.110;5.592;2022-12-29T04:17:10;13.10;;;1.80;;
62861;SDS011;48953;53.110;5.592;2022-12-29T04:22:39;23.83;;;2.85;;
62861;SDS011;48953;53.110;5.592;2022-12-29T04:25:05;12.02;;;1.70;;
62861;SDS011;48953;53.110;5.592;2022-12-29T04:27:32;16.27;;;2.58;;
62861;SDS011;48953;53.110;5.592;2022-12-29T04:32:43;19.02;;;2.20;;
62861;SDS011;48953;53.110;5.592;2022-12-29T04:35:10;16.92;;;2.08;;
62861;SDS011;48953;53.110;5.592;2022-12-29T04:37:36;14.52;;;2.35;;
62861;SDS011;48953;53.110;5.592;2022-12-29T04:40:02;15.18;;;2.03;;
62861;SDS011;48953;53.110;5.592;2022-12-29T04:42:28;19.42;;;2.55;;
62861;SDS011;48953;53.110;5.592;2022-12-29T04:44:54;21.40;;;2.20;;
62861;SDS011;48953;53.110;5.592;2022-12-29T04:47:20;19.15;;;2.70;;
62861;SDS011;48953;53.110;5.592;2022-12-29T04:49:46;21.48;;;2.70;;
62861;SDS011;48953;53.110;5.592;2022-12-29T04:52:12;16.50;;;2.25;;
62861;SDS011;48953;53.110;5.592;2022-12-29T04:54:38;15.73;;;2.25;;
62861;SDS011;48953;53.110;5.592;2022-12-29T04:57:04;18.73;;;2.80;;
62861;SDS011;48953;53.110;5.592;2022-12-29T04:59:30;19.70;;;2.60;;
62861;SDS011;48953;53.110;5.592;2022-12-29T05:01:56;16.67;;;2.28;;
62861;SDS011;48953;53.110;5.592;2022-12-29T05:04:22;15.73;;;2.25;;
62861;SDS011;48953;53.110;5.592;2022-12-29T05:06:48;20.35;;;2.53;;
62861;SDS011;48953;53.110;5.592;2022-12-29T05:09:14;17.40;;;3.45;;
62861;SDS011;48953;53.110;5.592;2022-12-29T05:11:40;14.60;;;2.45;;
62861;SDS011;48953;53.110;5.592;2022-12-29T05:14:06;16.95;;;2.00;;
62861;SDS011;48953;53.110;5.592;2022-12-29T05:16:32;22.48;;;2.53;;
62861;SDS011;48953;53.110;5.592;2022-12-29T05:18:58;18.42;;;2.78;;
62861;SDS011;48953;53.110;5.592;2022-12-29T05:21:24;18.63;;;2.03;;
62861;SDS011;48953;53.110;5.592;2022-12-29T05:23:50;13.98;;;2.05;;
62861;SDS011;48953;53.110;5.592;2022-12-29T05:26:16;9.57;;;2.05;;
62861;SDS011;48953;53.110;5.592;2022-12-29T05:28:42;15.05;;;2.05;;
62861;SDS011;48953;53.110;5.592;2022-12-29T05:31:08;15.25;;;1.90;;
62861;SDS011;48953;53.110;5.592;2022-12-29T05:33:34;14.18;;;1.90;;
62861;SDS011;48953;53.110;5.592;2022-12-29T05:36:04;15.20;;;1.52;;
62861;SDS011;48953;53.110;5.592;2022-12-29T05:38:30;13.70;;;1.92;;
62861;SDS011;48953;53.110;5.592;2022-12-29T05:40:56;13.55;;;1.90;;
62861;SDS011;48953;53.110;5.592;2022-12-29T05:43:22;17.10;;;1.92;;
62861;SDS011;48953;53.110;5.592;2022-12-29T05:45:48;18.13;;;2.17;;
62861;SDS011;48953;53.110;5.592;2022-12-29T05:48:15;10.68;;;2.03;;
62861;SDS011;48953;53.110;5.592;2022-12-29T05:50:51;12.55;;;1.50;;
62861;SDS011;48953;53.110;5.592;2022-12-29T05:53:17;11.65;;;2.13;;
62861;SDS011;48953;53.110;5.592;2022-12-29T05:55:47;18.42;;;2.20;;
62861;SDS011;48953;53.110;5.592;2022-12-29T05:58:14;16.60;;;2.65;;
62861;SDS011;48953;53.110;5.592;2022-12-29T06:00:40;11.50;;;1.73;;
62861;SDS011;48953;53.110;5.592;2022-12-29T06:03:06;14.73;;;1.83;;
62861;SDS011;48953;53.110;5.592;2022-12-29T06:05:32;13.82;;;2.40;;
62861;SDS011;48953;53.110;5.592;2022-12-29T06:07:58;15.68;;;2.80;;
62861;SDS011;48953;53.110;5.592;2022-12-29T06:10:24;16.30;;;2.45;;
62861;SDS011;48953;53.110;5.592;2022-12-29T06:12:50;14.13;;;1.92;;
62861;SDS011;48953;53.110;5.592;2022-12-29T06:15:16;12.98;;;1.90;;
62861;SDS011;48953;53.110;5.592;2022-12-29T06:17:43;18.05;;;2.60;;
62861;SDS011;48953;53.110;5.592;2022-12-29T06:20:16;12.27;;;2.05;;
62861;SDS011;48953;53.110;5.592;2022-12-29T06:22:42;21.35;;;2.33;;
62861;SDS011;48953;53.110;5.592;2022-12-29T06:25:23;20.08;;;2.15;;
62861;SDS011;48953;53.110;5.592;2022-12-29T06:27:52;17.65;;;2.97;;
62861;SDS011;48953;53.110;5.592;2022-12-29T06:30:18;15.60;;;2.25;;
62861;SDS011;48953;53.110;5.592;2022-12-29T06:35:41;12.82;;;2.00;;
62861;SDS011;48953;53.110;5.592;2022-12-29T06:38:16;16.40;;;2.67;;
62861;SDS011;48953;53.110;5.592;2022-12-29T06:40:43;20.80;;;2.55;;
62861;SDS011;48953;53.110;5.592;2022-12-29T06:43:10;14.45;;;2.03;;
62861;SDS011;48953;53.110;5.592;2022-12-29T06:45:37;21.63;;;2.45;;
62861;SDS011;48953;53.110;5.592;2022-12-29T06:48:04;14.48;;;2.17;;
62861;SDS011;48953;53.110;5.592;2022-12-29T06:50:30;18.02;;;2.95;;
62861;SDS011;48953;53.110;5.592;2022-12-29T06:52:58;21.83;;;2.72;;
62861;SDS011;48953;53.110;5.592;2022-12-29T06:55:24;19.35;;;2.60;;
62861;SDS011;48953;53.110;5.592;2022-12-29T06:57:50;24.98;;;4.47;;
62861;SDS011;48953;53.110;5.592;2022-12-29T07:00:18;19.92;;;3.00;;
62861;SDS011;48953;53.110;5.592;2022-12-29T07:02:44;18.40;;;2.58;;
62861;SDS011;48953;53.110;5.592;2022-12-29T07:05:11;20.92;;;3.03;;
62861;SDS011;48953;53.110;5.592;2022-12-29T07:07:47;10.05;;;1.88;;
62861;SDS011;48953;53.110;5.592;2022-12-29T07:10:13;19.65;;;3.90;;
62861;SDS011;48953;53.110;5.592;2022-12-29T07:12:39;18.98;;;2.83;;
62861;SDS011;48953;53.110;5.592;2022-12-29T07:15:05;18.30;;;2.63;;
62861;SDS011;48953;53.110;5.592;2022-12-29T07:17:32;17.92;;;2.33;;
62861;SDS011;48953;53.110;5.592;2022-12-29T07:19:58;25.73;;;3.17;;
62861;SDS011;48953;53.110;5.592;2022-12-29T07:22:24;17.38;;;2.70;;
62861;SDS011;48953;53.110;5.592;2022-12-29T07:24:50;21.00;;;2.95;;
62861;SDS011;48953;53.110;5.592;2022-12-29T07:27:16;21.67;;;3.22;;
62861;SDS011;48953;53.110;5.592;2022-12-29T07:29:42;16.80;;;2.40;;
62861;SDS011;48953;53.110;5.592;2022-12-29T07:32:09;16.30;;;2.25;;
62861;SDS011;48953;53.110;5.592;2022-12-29T07:34:35;17.48;;;2.58;;
62861;SDS011;48953;53.110;5.592;2022-12-29T07:37:19;22.42;;;2.50;;
62861;SDS011;48953;53.110;5.592;2022-12-29T07:39:46;23.13;;;3.20;;
62861;SDS011;48953;53.110;5.592;2022-12-29T07:42:12;15.18;;;2.40;;
62861;SDS011;48953;53.110;5.592;2022-12-29T07:44:56;19.30;;;3.17;;
62861;SDS011;48953;53.110;5.592;2022-12-29T07:47:22;16.98;;;2.97;;
62861;SDS011;48953;53.110;5.592;2022-12-29T07:50:00;19.33;;;2.70;;
62861;SDS011;48953;53.110;5.592;2022-12-29T07:52:26;19.88;;;3.65;;
62861;SDS011;48953;53.110;5.592;2022-12-29T07:54:52;24.40;;;3.15;;
62861;SDS011;48953;53.110;5.592;2022-12-29T07:57:18;20.63;;;3.42;;
62861;SDS011;48953;53.110;5.592;2022-12-29T07:59:44;21.52;;;3.63;;
62861;SDS011;48953;53.110;5.592;2022-12-29T08:02:10;16.65;;;3.17;;
62861;SDS011;48953;53.110;5.592;2022-12-29T08:04:41;20.88;;;3.63;;
62861;SDS011;48953;53.110;5.592;2022-12-29T08:10:15;18.52;;;3.08;;
62861;SDS011;48953;53.110;5.592;2022-12-29T08:12:43;17.73;;;2.58;;
62861;SDS011;48953;53.110;5.592;2022-12-29T08:15:10;22.88;;;3.17;;
62861;SDS011;48953;53.110;5.592;2022-12-29T08:17:37;18.67;;;3.33;;
62861;SDS011;48953;53.110;5.592;2022-12-29T08:20:03;30.45;;;3.58;;
62861;SDS011;48953;53.110;5.592;2022-12-29T08:22:30;28.15;;;3.28;;
62861;SDS011;48953;53.110;5.592;2022-12-29T08:24:56;20.60;;;3.70;;
62861;SDS011;48953;53.110;5.592;2022-12-29T08:27:22;16.23;;;3.03;;
62861;SDS011;48953;53.110;5.592;2022-12-29T08:29:48;22.67;;;2.97;;
62861;SDS011;48953;53.110;5.592;2022-12-29T08:32:14;24.83;;;3.05;;
62861;SDS011;48953;53.110;5.592;2022-12-29T08:34:40;19.58;;;2.85;;
62861;SDS011;48953;53.110;5.592;2022-12-29T08:37:06;23.17;;;3.15;;
62861;SDS011;48953;53.110;5.592;2022-12-29T08:39:31;20.30;;;3.47;;
62861;SDS011;48953;53.110;5.592;2022-12-29T08:41:57;24.50;;;3.80;;
62861;SDS011;48953;53.110;5.592;2022-12-29T08:44:23;16.88;;;3.30;;
62861;SDS011;48953;53.110;5.592;2022-12-29T08:46:49;11.75;;;2.65;;
62861;SDS011;48953;53.110;5.592;2022-12-29T08:49:15;23.15;;;3.35;;
62861;SDS011;48953;53.110;5.592;2022-12-29T08:51:41;17.77;;;3.53;;
62861;SDS011;48953;53.110;5.592;2022-12-29T08:54:07;18.60;;;2.53;;
62861;SDS011;48953;53.110;5.592;2022-12-29T08:56:33;19.60;;;2.40;;
62861;SDS011;48953;53.110;5.592;2022-12-29T08:58:59;25.90;;;3.75;;
62861;SDS011;48953;53.110;5.592;2022-12-29T09:01:26;31.45;;;4.28;;
62861;SDS011;48953;53.110;5.592;2022-12-29T09:06:44;23.17;;;3.80;;
62861;SDS011;48953;53.110;5.592;2022-12-29T09:09:11;26.98;;;3.28;;
62861;SDS011;48953;53.110;5.592;2022-12-29T09:11:37;23.52;;;4.45;;
62861;SDS011;48953;53.110;5.592;2022-12-29T09:17:08;24.05;;;3.05;;
62861;SDS011;48953;53.110;5.592;2022-12-29T09:19:52;22.85;;;2.90;;
62861;SDS011;48953;53.110;5.592;2022-12-29T09:22:18;26.00;;;3.80;;
62861;SDS011;48953;53.110;5.592;2022-12-29T09:24:44;29.42;;;3.67;;
62861;SDS011;48953;53.110;5.592;2022-12-29T09:27:10;18.73;;;3.08;;
62861;SDS011;48953;53.110;5.592;2022-12-29T09:29:36;17.70;;;2.47;;
62861;SDS011;48953;53.110;5.592;2022-12-29T09:32:03;20.15;;;2.63;;
62861;SDS011;48953;53.110;5.592;2022-12-29T09:34:29;19.70;;;2.95;;
62861;SDS011;48953;53.110;5.592;2022-12-29T09:36:55;18.58;;;2.67;;
62861;SDS011;48953;53.110;5.592;2022-12-29T09:39:21;13.52;;;2.22;;
62861;SDS011;48953;53.110;5.592;2022-12-29T09:41:59;12.93;;;2.60;;
62861;SDS011;48953;53.110;5.592;2022-12-29T09:47:09;18.27;;;3.53;;
62861;SDS011;48953;53.110;5.592;2022-12-29T09:49:47;16.92;;;2.63;;
62861;SDS011;48953;53.110;5.592;2022-12-29T09:52:28;18.55;;;2.40;;
62861;SDS011;48953;53.110;5.592;2022-12-29T09:54:56;16.27;;;2.30;;
62861;SDS011;48953;53.110;5.592;2022-12-29T10:00:03;16.15;;;2.40;;
62861;SDS011;48953;53.110;5.592;2022-12-29T10:02:37;18.40;;;2.80;;
62861;SDS011;48953;53.110;5.592;2022-12-29T10:05:04;18.10;;;2.35;;
62861;SDS011;48953;53.110;5.592;2022-12-29T10:07:41;25.40;;;3.28;;
62861;SDS011;48953;53.110;5.592;2022-12-29T10:10:13;23.42;;;3.00;;
62861;SDS011;48953;53.110;5.592;2022-12-29T10:12:47;28.13;;;3.70;;
62861;SDS011;48953;53.110;5.592;2022-12-29T10:25:28;25.77;;;3.97;;
62861;SDS011;48953;53.110;5.592;2022-12-29T10:27:56;18.45;;;3.47;;
62861;SDS011;48953;53.110;5.592;2022-12-29T10:30:23;16.25;;;3.85;;
62861;SDS011;48953;53.110;5.592;2022-12-29T10:32:56;15.55;;;2.75;;
62861;SDS011;48953;53.110;5.592;2022-12-29T10:35:24;19.77;;;3.00;;
62861;SDS011;48953;53.110;5.592;2022-12-29T10:37:56;12.15;;;2.13;;
62861;SDS011;48953;53.110;5.592;2022-12-29T10:40:25;16.17;;;2.75;;
62861;SDS011;48953;53.110;5.592;2022-12-29T10:42:54;15.75;;;2.63;;
62861;SDS011;48953;53.110;5.592;2022-12-29T10:45:21;17.02;;;3.70;;
62861;SDS011;48953;53.110;5.592;2022-12-29T10:47:52;13.45;;;2.80;;
62861;SDS011;48953;53.110;5.592;2022-12-29T10:50:22;12.13;;;2.60;;
62861;SDS011;48953;53.110;5.592;2022-12-29T10:55:17;14.90;;;1.80;;
62861;SDS011;48953;53.110;5.592;2022-12-29T10:57:45;16.08;;;2.33;;
62861;SDS011;48953;53.110;5.592;2022-12-29T11:05:39;10.20;;;1.85;;
62861;SDS011;48953;53.110;5.592;2022-12-29T11:08:14;15.48;;;2.10;;
62861;SDS011;48953;53.110;5.592;2022-12-29T11:10:44;21.75;;;4.70;;
62861;SDS011;48953;53.110;5.592;2022-12-29T11:13:14;13.77;;;2.22;;
62861;SDS011;48953;53.110;5.592;2022-12-29T11:15:44;10.63;;;1.58;;
62861;SDS011;48953;53.110;5.592;2022-12-29T11:18:20;9.02;;;1.52;;
62861;SDS011;48953;53.110;5.592;2022-12-29T11:20:47;16.30;;;2.10;;
62861;SDS011;48953;53.110;5.592;2022-12-29T11:28:46;11.48;;;1.70;;
62861;SDS011;48953;53.110;5.592;2022-12-29T11:31:16;12.27;;;2.00;;
62861;SDS011;48953;53.110;5.592;2022-12-29T11:33:43;11.10;;;1.70;;
62861;SDS011;48953;53.110;5.592;2022-12-29T11:36:16;9.73;;;1.70;;
62861;SDS011;48953;53.110;5.592;2022-12-29T11:38:51;12.20;;;1.80;;
62861;SDS011;48953;53.110;5.592;2022-12-29T11:41:24;10.18;;;1.13;;
62861;SDS011;48953;53.110;5.592;2022-12-29T11:43:51;12.50;;;1.23;;
62861;SDS011;48953;53.110;5.592;2022-12-29T11:46:20;9.18;;;1.13;;
62861;SDS011;48953;53.110;5.592;2022-12-29T11:48:46;7.97;;;1.38;;
62861;SDS011;48953;53.110;5.592;2022-12-29T11:51:13;10.63;;;1.30;;
62861;SDS011;48953;53.110;5.592;2022-12-29T11:53:47;7.90;;;2.08;;
62861;SDS011;48953;53.110;5.592;2022-12-29T11:56:16;6.68;;;1.20;;
62861;SDS011;48953;53.110;5.592;2022-12-29T11:58:43;11.43;;;1.60;;
62861;SDS011;48953;53.110;5.592;2022-12-29T12:04:00;8.63;;;1.35;;
62861;SDS011;48953;53.110;5.592;2022-12-29T12:06:27;6.88;;;1.70;;
62861;SDS011;48953;53.110;5.592;2022-12-29T12:08:55;11.02;;;1.77;;
62861;SDS011;48953;53.110;5.592;2022-12-29T12:11:24;9.80;;;2.00;;
62861;SDS011;48953;53.110;5.592;2022-12-29T12:14:00;9.80;;;1.40;;
62861;SDS011;48953;53.110;5.592;2022-12-29T12:16:35;9.73;;;1.63;;
62861;SDS011;48953;53.110;5.592;2022-12-29T12:19:04;8.65;;;1.63;;
62861;SDS011;48953;53.110;5.592;2022-12-29T12:21:38;10.60;;;2.03;;
62861;SDS011;48953;53.110;5.592;2022-12-29T12:26:35;10.60;;;1.80;;
62861;SDS011;48953;53.110;5.592;2022-12-29T12:29:05;11.77;;;1.63;;
62861;SDS011;48953;53.110;5.592;2022-12-29T12:31:52;6.05;;;1.42;;
62861;SDS011;48953;53.110;5.592;2022-12-29T12:34:24;10.65;;;1.60;;
62861;SDS011;48953;53.110;5.592;2022-12-29T12:41:50;9.68;;;1.92;;
62861;SDS011;48953;53.110;5.592;2022-12-29T12:44:29;9.60;;;1.85;;
62861;SDS011;48953;53.110;5.592;2022-12-29T12:48:00;6.97;;;1.42;;
62861;SDS011;48953;53.110;5.592;2022-12-29T12:57:45;10.85;;;3.08;;
62861;SDS011;48953;53.110;5.592;2022-12-29T13:00:16;10.05;;;1.95;;
62861;SDS011;48953;53.110;5.592;2022-12-29T13:15:55;12.02;;;2.53;;
62861;SDS011;48953;53.110;5.592;2022-12-29T13:21:14;8.25;;;1.35;;
62861;SDS011;48953;53.110;5.592;2022-12-29T13:24:02;9.45;;;1.90;;
62861;SDS011;48953;53.110;5.592;2022-12-29T13:29:03;9.00;;;1.33;;
62861;SDS011;48953;53.110;5.592;2022-12-29T13:39:11;9.77;;;2.17;;
62861;SDS011;48953;53.110;5.592;2022-12-29T13:41:57;10.02;;;2.22;;
62861;SDS011;48953;53.110;5.592;2022-12-29T13:44:29;7.60;;;1.60;;
62861;SDS011;48953;53.110;5.592;2022-12-29T13:46:56;8.02;;;1.30;;
62861;SDS011;48953;53.110;5.592;2022-12-29T13:49:26;10.93;;;1.60;;
62861;SDS011;48953;53.110;5.592;2022-12-29T13:51:56;7.32;;;1.15;;
62861;SDS011;48953;53.110;5.592;2022-12-29T13:57:29;15.10;;;3.70;;
62861;SDS011;48953;53.110;5.592;2022-12-29T13:59:59;12.57;;;2.28;;
62861;SDS011;48953;53.110;5.592;2022-12-29T14:07:44;9.90;;;1.63;;
62861;SDS011;48953;53.110;5.592;2022-12-29T14:10:26;12.75;;;2.42;;
62861;SDS011;48953;53.110;5.592;2022-12-29T14:13:00;7.38;;;1.38;;
62861;SDS011;48953;53.110;5.592;2022-12-29T14:15:27;7.80;;;1.75;;
62861;SDS011;48953;53.110;5.592;2022-12-29T14:18:41;10.02;;;2.05;;
62861;SDS011;48953;53.110;5.592;2022-12-29T14:20:47;9.18;;;1.15;;
62861;SDS011;48953;53.110;5.592;2022-12-29T14:24:00;10.20;;;1.42;;
62861;SDS011;48953;53.110;5.592;2022-12-29T14:28:35;8.25;;;1.38;;
62861;SDS011;48953;53.110;5.592;2022-12-29T14:36:33;10.18;;;1.42;;
62861;SDS011;48953;53.110;5.592;2022-12-29T14:39:00;8.60;;;1.48;;
62861;SDS011;48953;53.110;5.592;2022-12-29T14:41:36;7.18;;;1.50;;
62861;SDS011;48953;53.110;5.592;2022-12-29T14:46:42;13.50;;;2.63;;
62861;SDS011;48953;53.110;5.592;2022-12-29T14:49:11;11.35;;;1.60;;
62861;SDS011;48953;53.110;5.592;2022-12-29T14:51:38;8.95;;;1.45;;
62861;SDS011;48953;53.110;5.592;2022-12-29T14:56:48;13.48;;;1.80;;
62861;SDS011;48953;53.110;5.592;2022-12-29T14:59:14;9.45;;;2.40;;
62861;SDS011;48953;53.110;5.592;2022-12-29T15:01:59;10.38;;;2.08;;
62861;SDS011;48953;53.110;5.592;2022-12-29T15:04:31;10.05;;;1.75;;
62861;SDS011;48953;53.110;5.592;2022-12-29T15:06:58;12.25;;;2.45;;
62861;SDS011;48953;53.110;5.592;2022-12-29T15:09:30;11.13;;;1.98;;
62861;SDS011;48953;53.110;5.592;2022-12-29T15:12:04;8.52;;;1.83;;
62861;SDS011;48953;53.110;5.592;2022-12-29T15:14:35;8.32;;;2.20;;
62861;SDS011;48953;53.110;5.592;2022-12-29T15:17:09;9.77;;;2.22;;
62861;SDS011;48953;53.110;5.592;2022-12-29T15:19:35;17.90;;;2.47;;
62861;SDS011;48953;53.110;5.592;2022-12-29T15:22:02;9.77;;;1.58;;
62861;SDS011;48953;53.110;5.592;2022-12-29T15:24:28;10.00;;;1.90;;
62861;SDS011;48953;53.110;5.592;2022-12-29T15:26:54;14.65;;;1.83;;
62861;SDS011;48953;53.110;5.592;2022-12-29T15:29:36;8.68;;;0.98;;
62861;SDS011;48953;53.110;5.592;2022-12-29T15:34:45;6.40;;;1.05;;
62861;SDS011;48953;53.110;5.592;2022-12-29T15:37:19;6.75;;;1.20;;
62861;SDS011;48953;53.110;5.592;2022-12-29T15:39:45;3.90;;;0.80;;
62861;SDS011;48953;53.110;5.592;2022-12-29T15:42:18;4.57;;;0.70;;
62861;SDS011;48953;53.110;5.592;2022-12-29T15:44:47;7.85;;;1.15;;
62861;SDS011;48953;53.110;5.592;2022-12-29T15:49:41;7.35;;;1.25;;
62861;SDS011;48953;53.110;5.592;2022-12-29T15:52:07;10.00;;;2.33;;
62861;SDS011;48953;53.110;5.592;2022-12-29T15:54:34;6.05;;;1.20;;
62861;SDS011;48953;53.110;5.592;2022-12-29T15:57:00;7.80;;;1.85;;
62861;SDS011;48953;53.110;5.592;2022-12-29T15:59:30;4.00;;;1.25;;
62861;SDS011;48953;53.110;5.592;2022-12-29T16:01:56;7.80;;;1.52;;
62861;SDS011;48953;53.110;5.592;2022-12-29T16:04:22;10.27;;;2.00;;
62861;SDS011;48953;53.110;5.592;2022-12-29T16:09:32;5.57;;;1.30;;
62861;SDS011;48953;53.110;5.592;2022-12-29T16:11:59;6.65;;;1.63;;
62861;SDS011;48953;53.110;5.592;2022-12-29T16:14:32;7.05;;;2.42;;
62861;SDS011;48953;53.110;5.592;2022-12-29T16:17:00;16.42;;;1.80;;
62861;SDS011;48953;53.110;5.592;2022-12-29T16:19:29;11.80;;;2.60;;
62861;SDS011;48953;53.110;5.592;2022-12-29T16:21:58;12.10;;;2.13;;
62861;SDS011;48953;53.110;5.592;2022-12-29T16:24:25;12.05;;;2.25;;
62861;SDS011;48953;53.110;5.592;2022-12-29T16:26:59;13.95;;;2.33;;
62861;SDS011;48953;53.110;5.592;2022-12-29T16:29:28;17.83;;;2.30;;
62861;SDS011;48953;53.110;5.592;2022-12-29T16:31:55;14.60;;;4.40;;
62861;SDS011;48953;53.110;5.592;2022-12-29T16:34:30;16.13;;;3.33;;
62861;SDS011;48953;53.110;5.592;2022-12-29T16:41:52;22.60;;;4.95;;
62861;SDS011;48953;53.110;5.592;2022-12-29T16:49:35;16.40;;;2.40;;
62861;SDS011;48953;53.110;5.592;2022-12-29T16:52:11;14.77;;;4.03;;
62861;SDS011;48953;53.110;5.592;2022-12-29T16:54:37;15.95;;;3.25;;
62861;SDS011;48953;53.110;5.592;2022-12-29T16:57:04;20.92;;;3.78;;
62861;SDS011;48953;53.110;5.592;2022-12-29T16:59:32;16.75;;;2.42;;
62861;SDS011;48953;53.110;5.592;2022-12-29T17:01:59;18.60;;;2.50;;
62861;SDS011;48953;53.110;5.592;2022-12-29T17:04:28;14.63;;;2.40;;
62861;SDS011;48953;53.110;5.592;2022-12-29T17:06:55;19.30;;;2.50;;
62861;SDS011;48953;53.110;5.592;2022-12-29T17:09:22;15.13;;;2.50;;
62861;SDS011;48953;53.110;5.592;2022-12-29T17:11:49;13.18;;;2.08;;
62861;SDS011;48953;53.110;5.592;2022-12-29T17:14:25;14.57;;;2.30;;
62861;SDS011;48953;53.110;5.592;2022-12-29T17:16:52;18.50;;;2.72;;
62861;SDS011;48953;53.110;5.592;2022-12-29T17:19:19;17.02;;;1.95;;
62861;SDS011;48953;53.110;5.592;2022-12-29T17:21:46;11.00;;;2.40;;
62861;SDS011;48953;53.110;5.592;2022-12-29T17:24:15;13.80;;;1.88;;
62861;SDS011;48953;53.110;5.592;2022-12-29T17:26:43;10.77;;;1.70;;